Time;durP1;ratioP1;P1;durP2;ratioP2;P2;SDS_P1;SDS_P2;PMS_P1;PMS_P2;Temp;Humidity;BMP_temperature;BMP_pressure;BME280_temperature;BME280_humidity;BME280_pressure;Samples;Min_cycle;Max_cycle;Signal;HPM_P1;HPM_P2
2022/03/10 00:00:20;;;;;;;10.00;4.45;;;2.50;64.50;;;;;;5058250;28;20045;-79
2022/03/10 00:02:47;;;;;;;7.93;4.32;;;2.60;64.50;;;;;;5048521;28;20387;-79
2022/03/10 00:05:15;;;;;;;7.28;3.72;;;2.50;64.60;;;;;;5052540;28;20124;-79
2022/03/10 00:07:48;;;;;;;7.90;3.70;;;2.50;64.70;;;;;;5054173;28;20048;-78
2022/03/10 00:10:15;;;;;;;7.65;4.05;;;2.40;64.70;;;;;;5054999;28;20610;-79
2022/03/10 00:12:51;;;;;;;8.07;4.10;;;2.40;64.80;;;;;;5054153;28;20054;-78
2022/03/10 00:15:21;;;;;;;9.32;3.33;;;2.30;64.90;;;;;;5051773;28;20175;-78
2022/03/10 00:17:48;;;;;;;10.57;3.78;;;2.30;65.00;;;;;;5058887;28;20160;-77
2022/03/10 00:20:15;;;;;;;8.43;3.33;;;2.30;65.00;;;;;;5053048;28;20126;-76
2022/03/10 00:22:50;;;;;;;8.77;4.57;;;2.30;65.10;;;;;;5055140;28;20040;-77
2022/03/10 00:25:17;;;;;;;9.73;4.05;;;2.30;65.20;;;;;;5061438;28;20227;-77
2022/03/10 00:27:45;;;;;;;13.98;4.55;;;2.30;65.20;;;;;;5051635;28;20557;-80
2022/03/10 00:30:14;;;;;;;7.05;3.83;;;2.30;65.40;;;;;;5053463;28;20046;-79
2022/03/10 00:32:45;;;;;;;10.60;4.55;;;2.20;65.40;;;;;;5057542;28;20049;-78
2022/03/10 00:35:17;;;;;;;8.15;4.15;;;2.20;65.30;;;;;;5060421;28;20176;-79
2022/03/10 00:37:45;;;;;;;10.77;3.65;;;2.20;65.40;;;;;;5052080;28;20115;-79
2022/03/10 00:40:13;;;;;;;7.25;3.53;;;2.20;65.40;;;;;;5060751;28;20044;-79
2022/03/10 00:46:53;;;;;;;6.78;3.70;;;2.20;65.50;;;;;;5046585;28;20039;-77
2022/03/10 00:49:26;;;;;;;7.32;3.95;;;2.20;65.50;;;;;;5050103;28;20036;-79
2022/03/10 00:51:53;;;;;;;8.88;4.10;;;2.20;65.60;;;;;;5053449;28;20663;-77
2022/03/10 00:54:20;;;;;;;7.45;3.85;;;2.20;65.60;;;;;;5058188;28;20527;-76
2022/03/10 00:56:47;;;;;;;9.60;4.60;;;2.10;65.70;;;;;;5054200;28;20608;-76
2022/03/10 00:59:14;;;;;;;8.65;3.53;;;2.10;65.90;;;;;;5054614;28;20040;-78
2022/03/10 01:01:41;;;;;;;6.30;3.20;;;2.10;65.80;;;;;;5051039;28;20394;-76
2022/03/10 01:04:10;;;;;;;6.95;4.13;;;2.10;65.90;;;;;;5048091;28;20040;-76
2022/03/10 01:06:38;;;;;;;8.07;3.45;;;2.10;66.00;;;;;;5053358;28;20041;-78
2022/03/10 01:09:06;;;;;;;10.27;3.90;;;2.00;65.80;;;;;;5055306;28;20049;-79
2022/03/10 01:11:34;;;;;;;7.80;4.18;;;2.00;65.90;;;;;;5059777;28;20115;-79
2022/03/10 01:14:01;;;;;;;7.95;3.47;;;2.00;65.90;;;;;;5054549;28;20052;-79
2022/03/10 01:16:28;;;;;;;14.73;5.00;;;2.10;65.80;;;;;;5061038;28;20079;-78
2022/03/10 01:18:55;;;;;;;8.88;4.18;;;2.10;65.80;;;;;;5053436;28;20127;-77
2022/03/10 01:21:24;;;;;;;8.35;3.85;;;2.10;65.90;;;;;;5051953;28;20059;-76
2022/03/10 01:23:51;;;;;;;9.35;4.40;;;2.00;66.00;;;;;;5057347;28;20492;-77
2022/03/10 01:26:17;;;;;;;8.82;4.60;;;1.90;66.10;;;;;;5061240;28;20064;-77
2022/03/10 01:28:44;;;;;;;8.65;3.17;;;1.90;66.20;;;;;;5055416;28;20412;-78
2022/03/10 01:31:11;;;;;;;8.80;3.97;;;1.90;66.20;;;;;;5058387;28;20033;-76
2022/03/10 01:33:39;;;;;;;9.73;3.58;;;2.00;66.20;;;;;;5056324;28;20056;-78
2022/03/10 01:36:06;;;;;;;6.88;4.22;;;1.90;66.20;;;;;;5055404;28;20170;-78
2022/03/10 01:38:39;;;;;;;9.13;3.17;;;2.00;66.10;;;;;;5056224;28;20138;-76
2022/03/10 01:41:06;;;;;;;9.57;3.75;;;2.00;66.10;;;;;;5070393;28;20081;-80
2022/03/10 01:43:33;;;;;;;9.43;3.38;;;1.90;66.10;;;;;;5055151;28;20075;-77
2022/03/10 01:46:02;;;;;;;9.48;3.72;;;1.90;66.20;;;;;;5056426;28;20060;-76
2022/03/10 01:48:29;;;;;;;8.80;3.72;;;2.00;66.20;;;;;;5056419;28;20045;-77
2022/03/10 01:50:56;;;;;;;8.55;3.72;;;2.00;66.20;;;;;;5056954;28;20048;-77
2022/03/10 01:53:23;;;;;;;9.82;4.05;;;1.90;66.20;;;;;;5058111;28;20041;-77
2022/03/10 01:55:51;;;;;;;9.15;4.15;;;1.90;66.30;;;;;;5063223;28;20047;-78
2022/03/10 01:58:19;;;;;;;11.52;4.40;;;1.80;66.50;;;;;;5058410;28;20043;-77
2022/03/10 02:00:49;;;;;;;9.57;3.42;;;1.80;66.60;;;;;;5052218;28;20047;-79
2022/03/10 02:03:16;;;;;;;8.07;3.30;;;1.80;66.50;;;;;;5054507;28;20039;-79
2022/03/10 02:05:43;;;;;;;8.13;3.22;;;1.80;66.80;;;;;;5059972;28;20041;-76
2022/03/10 02:10:56;;;;;;;6.40;3.20;;;1.80;66.60;;;;;;5057684;28;20467;-76
2022/03/10 02:13:23;;;;;;;7.38;3.63;;;1.80;66.50;;;;;;5051434;28;20953;-77
2022/03/10 02:18:37;;;;;;;6.72;3.70;;;1.80;66.40;;;;;;5054638;28;20167;-76
2022/03/10 02:21:04;;;;;;;5.50;2.80;;;1.80;66.20;;;;;;5051603;28;20057;-77
2022/03/10 02:23:35;;;;;;;8.10;3.43;;;1.80;66.20;;;;;;5050862;28;20053;-78
2022/03/10 02:26:03;;;;;;;6.00;3.20;;;1.80;66.10;;;;;;5057729;28;20129;-77
2022/03/10 02:28:30;;;;;;;7.50;3.05;;;1.80;66.20;;;;;;5053779;28;20090;-78
2022/03/10 02:30:57;;;;;;;8.48;3.05;;;1.80;66.20;;;;;;5055882;28;20044;-78
2022/03/10 02:33:24;;;;;;;6.75;3.00;;;1.80;66.20;;;;;;5049664;28;20079;-79
2022/03/10 02:35:51;;;;;;;7.10;3.20;;;1.80;66.30;;;;;;5050867;28;20474;-80
2022/03/10 02:38:19;;;;;;;5.38;2.65;;;1.70;66.50;;;;;;5056893;28;20651;-75
2022/03/10 02:40:48;;;;;;;4.60;2.08;;;1.70;66.40;;;;;;5051746;28;20482;-77
2022/03/10 02:43:15;;;;;;;8.50;3.65;;;1.70;66.60;;;;;;5055813;28;20479;-79
2022/03/10 02:45:42;;;;;;;8.48;3.50;;;1.70;66.70;;;;;;5055662;28;20040;-80
2022/03/10 02:48:09;;;;;;;9.50;3.97;;;1.70;66.80;;;;;;5056777;28;20044;-77
2022/03/10 02:50:36;;;;;;;8.85;3.92;;;1.70;66.70;;;;;;5050988;28;21713;-78
2022/03/10 02:53:05;;;;;;;10.10;3.17;;;1.70;66.70;;;;;;5058900;28;20127;-78
2022/03/10 02:55:32;;;;;;;11.10;4.22;;;1.70;66.80;;;;;;5053685;28;20041;-79
2022/03/10 02:58:02;;;;;;;7.45;3.47;;;1.60;66.80;;;;;;5056961;28;20048;-77
2022/03/10 03:00:30;;;;;;;7.80;2.97;;;1.60;67.00;;;;;;5052220;28;20231;-80
2022/03/10 03:02:57;;;;;;;7.28;3.13;;;1.50;67.00;;;;;;5057226;28;20060;-79
2022/03/10 03:05:24;;;;;;;5.13;3.03;;;1.60;67.00;;;;;;5057017;28;20498;-79
2022/03/10 03:07:51;;;;;;;7.53;3.17;;;1.60;67.00;;;;;;5054853;28;20051;-79
2022/03/10 03:10:18;;;;;;;6.60;2.72;;;1.50;67.00;;;;;;5052117;28;20084;-79
2022/03/10 03:12:47;;;;;;;9.48;3.65;;;1.50;67.10;;;;;;5059465;28;20448;-79
2022/03/10 03:15:15;;;;;;;9.70;3.20;;;1.50;67.20;;;;;;5056091;28;20064;-77
2022/03/10 03:17:42;;;;;;;7.85;3.65;;;1.50;67.20;;;;;;5032872;28;20041;-80
2022/03/10 03:20:14;;;;;;;9.15;3.50;;;1.50;67.10;;;;;;5035481;28;20044;-79
2022/03/10 03:22:41;;;;;;;10.98;2.97;;;1.40;67.30;;;;;;5036272;28;20048;-79
2022/03/10 03:25:10;;;;;;;10.75;3.97;;;1.40;67.30;;;;;;5033638;28;20148;-80
2022/03/10 03:27:37;;;;;;;8.63;3.28;;;1.40;67.30;;;;;;5036995;28;20048;-79
2022/03/10 03:30:05;;;;;;;7.68;3.05;;;1.40;67.30;;;;;;5034264;28;20046;-78
2022/03/10 03:32:34;;;;;;;6.22;2.78;;;1.40;67.30;;;;;;5033894;28;20221;-79
2022/03/10 03:35:01;;;;;;;8.90;3.55;;;1.30;67.40;;;;;;5032690;28;20140;-76
2022/03/10 03:37:28;;;;;;;6.30;3.58;;;1.30;67.50;;;;;;5035245;28;20174;-74
2022/03/10 03:39:55;;;;;;;7.07;3.33;;;1.30;67.60;;;;;;5032832;28;20060;-81
2022/03/10 03:42:22;;;;;;;7.82;3.05;;;1.30;67.60;;;;;;5032331;28;20139;-79
2022/03/10 03:44:49;;;;;;;8.00;3.22;;;1.30;67.60;;;;;;5033084;28;20526;-78
2022/03/10 03:47:16;;;;;;;8.40;3.38;;;1.30;67.60;;;;;;5032466;28;20040;-80
2022/03/10 03:49:44;;;;;;;8.70;3.67;;;1.30;67.70;;;;;;5031532;28;20206;-78
2022/03/10 03:52:11;;;;;;;8.63;3.97;;;1.30;67.70;;;;;;5035853;28;20049;-79
2022/03/10 03:54:38;;;;;;;9.60;3.95;;;1.20;67.80;;;;;;5034840;28;21123;-79
2022/03/10 03:57:05;;;;;;;10.40;3.80;;;1.20;67.90;;;;;;5036306;28;20045;-78
2022/03/10 03:59:32;;;;;;;7.35;3.35;;;1.20;67.90;;;;;;5036153;28;20091;-78
2022/03/10 04:01:59;;;;;;;7.18;3.50;;;1.20;67.90;;;;;;5034698;28;20054;-79
2022/03/10 04:04:26;;;;;;;6.60;2.63;;;1.20;67.90;;;;;;5035533;28;20045;-80
2022/03/10 04:06:54;;;;;;;9.10;3.30;;;1.20;68.00;;;;;;5036359;28;20163;-79
2022/03/10 04:09:21;;;;;;;6.95;3.25;;;1.20;68.10;;;;;;5034678;28;20767;-77
2022/03/10 04:11:48;;;;;;;8.27;3.42;;;1.20;68.10;;;;;;5034745;28;20049;-80
2022/03/10 04:14:15;;;;;;;7.70;3.10;;;1.10;68.10;;;;;;5035337;28;20056;-79
2022/03/10 04:16:42;;;;;;;8.10;3.78;;;1.10;68.20;;;;;;5036279;28;20042;-79
2022/03/10 04:19:09;;;;;;;8.25;3.03;;;1.10;68.20;;;;;;5036965;28;20064;-77
2022/03/10 04:21:36;;;;;;;7.72;3.22;;;1.00;68.30;;;;;;5036469;28;20044;-81
2022/03/10 04:24:04;;;;;;;6.38;2.97;;;1.00;68.30;;;;;;5035729;28;20083;-78
2022/03/10 04:26:32;;;;;;;5.53;3.53;;;1.00;68.40;;;;;;5036286;28;20048;-78
2022/03/10 04:28:58;;;;;;;9.55;3.30;;;0.90;68.50;;;;;;5036174;28;20040;-77
2022/03/10 04:31:25;;;;;;;7.18;3.45;;;0.90;68.60;;;;;;5034981;28;20052;-79
2022/03/10 04:33:52;;;;;;;7.35;2.95;;;0.90;68.50;;;;;;5035459;28;20041;-79
2022/03/10 04:36:19;;;;;;;8.75;3.05;;;0.90;68.60;;;;;;5036228;28;20659;-80
2022/03/10 04:38:46;;;;;;;5.43;2.60;;;0.90;68.70;;;;;;5035928;28;20724;-77
2022/03/10 04:41:14;;;;;;;5.97;2.95;;;0.80;68.70;;;;;;5035448;28;20041;-79
2022/03/10 04:43:41;;;;;;;17.27;3.92;;;0.80;68.90;;;;;;5036106;28;20048;-79
2022/03/10 04:46:08;;;;;;;8.35;3.45;;;0.80;68.70;;;;;;5032754;28;20052;-77
2022/03/10 04:48:35;;;;;;;6.35;3.13;;;0.80;68.90;;;;;;5037322;28;20051;-77
2022/03/10 04:51:02;;;;;;;6.65;2.90;;;0.80;69.00;;;;;;5035189;28;20707;-80
2022/03/10 04:53:32;;;;;;;8.85;3.45;;;0.80;69.20;;;;;;5036136;28;20494;-79
2022/03/10 04:55:59;;;;;;;7.60;3.47;;;0.80;69.10;;;;;;5050929;28;20127;-81
2022/03/10 04:58:27;;;;;;;7.07;3.85;;;0.80;69.40;;;;;;5036368;28;20046;-77
2022/03/10 05:00:54;;;;;;;8.98;4.13;;;0.90;69.30;;;;;;5032741;28;20049;-78
2022/03/10 05:03:21;;;;;;;7.57;3.88;;;0.90;69.40;;;;;;5034150;28;20041;-80
2022/03/10 05:05:48;;;;;;;6.93;3.72;;;0.90;69.60;;;;;;5036581;28;20820;-80
2022/03/10 05:08:15;;;;;;;9.30;3.65;;;0.80;69.70;;;;;;5035349;28;20036;-80
2022/03/10 05:10:42;;;;;;;6.60;3.63;;;0.90;69.90;;;;;;5036508;28;20072;-79
2022/03/10 05:13:10;;;;;;;8.27;2.92;;;0.90;69.90;;;;;;5034704;28;20041;-80
2022/03/10 05:19:33;;;;;;;5.05;2.50;;;0.90;69.80;;;;;;5033913;28;20047;-79
2022/03/10 05:22:06;;;;;;;7.28;2.63;;;0.90;69.70;;;;;;5034424;28;20059;-79
2022/03/10 05:24:34;;;;;;;7.30;3.30;;;0.90;69.70;;;;;;5034583;28;20128;-78
2022/03/10 05:27:01;;;;;;;6.80;3.38;;;0.90;69.70;;;;;;5035094;28;20066;-78
2022/03/10 05:29:29;;;;;;;10.90;3.75;;;0.80;69.50;;;;;;5034820;28;20059;-78
2022/03/10 05:31:56;;;;;;;6.18;3.20;;;0.80;69.60;;;;;;5033803;28;20068;-79
2022/03/10 05:34:23;;;;;;;9.07;4.03;;;0.80;69.60;;;;;;5031382;28;20182;-78
2022/03/10 05:36:52;;;;;;;7.55;2.92;;;0.70;69.60;;;;;;5034293;28;20073;-79
2022/03/10 05:39:19;;;;;;;10.27;2.83;;;0.80;69.80;;;;;;5035889;28;20049;-78
2022/03/10 05:41:46;;;;;;;8.02;3.53;;;0.70;69.80;;;;;;5033319;28;20136;-78
2022/03/10 05:44:13;;;;;;;9.75;3.88;;;0.70;69.90;;;;;;5030844;28;20050;-77
2022/03/10 05:46:40;;;;;;;7.95;3.10;;;0.70;69.90;;;;;;5032888;28;20390;-79
2022/03/10 05:49:07;;;;;;;4.95;2.60;;;0.70;69.80;;;;;;5035662;28;20112;-77
2022/03/10 05:51:36;;;;;;;10.65;3.85;;;0.70;69.90;;;;;;5033857;28;20236;-78
2022/03/10 05:54:04;;;;;;;7.97;3.65;;;0.70;70.00;;;;;;5035562;28;20709;-75
2022/03/10 05:56:31;;;;;;;7.85;3.20;;;0.70;69.90;;;;;;5033710;28;20041;-80
2022/03/10 05:58:58;;;;;;;7.45;3.08;;;0.70;69.90;;;;;;5035514;28;20063;-77
2022/03/10 06:01:25;;;;;;;9.23;3.38;;;0.70;69.80;;;;;;5032037;28;20047;-77
2022/03/10 06:03:52;;;;;;;7.82;3.53;;;0.70;69.90;;;;;;5033603;28;20064;-78
2022/03/10 06:06:19;;;;;;;8.38;4.40;;;0.70;70.00;;;;;;5034479;28;20692;-77
2022/03/10 06:08:46;;;;;;;10.48;3.00;;;0.70;70.00;;;;;;5034285;28;20520;-75
2022/03/10 06:11:14;;;;;;;8.20;3.47;;;0.70;70.00;;;;;;5036037;28;20156;-78
2022/03/10 06:13:41;;;;;;;6.63;3.15;;;0.70;70.00;;;;;;5032991;28;20048;-79
2022/03/10 06:16:08;;;;;;;11.00;3.67;;;0.70;70.20;;;;;;5032888;28;20055;-79
2022/03/10 06:18:35;;;;;;;7.53;2.70;;;0.70;70.20;;;;;;5034971;28;20074;-77
2022/03/10 06:21:02;;;;;;;9.73;3.95;;;0.70;70.10;;;;;;5033334;28;20037;-76
2022/03/10 06:23:29;;;;;;;8.98;3.63;;;0.70;70.20;;;;;;5044966;28;20664;-79
2022/03/10 06:25:56;;;;;;;7.43;3.58;;;0.70;70.30;;;;;;5033648;28;20037;-79
2022/03/10 06:28:25;;;;;;;8.75;4.07;;;0.70;70.30;;;;;;5033302;28;20120;-78
2022/03/10 06:30:52;;;;;;;13.23;4.85;;;0.70;70.30;;;;;;5033109;28;20037;-81
2022/03/10 06:33:18;;;;;;;7.93;3.72;;;0.70;70.40;;;;;;5034200;28;20029;-78
2022/03/10 06:35:46;;;;;;;8.98;3.45;;;0.70;70.50;;;;;;5034281;28;20057;-77
2022/03/10 06:38:13;;;;;;;9.90;3.30;;;0.70;70.50;;;;;;5034596;28;20077;-79
2022/03/10 06:40:39;;;;;;;9.40;3.92;;;0.70;70.40;;;;;;5034657;28;20087;-80
2022/03/10 06:43:06;;;;;;;7.88;3.75;;;0.70;70.50;;;;;;5033283;28;20055;-79
2022/03/10 06:45:36;;;;;;;9.65;4.15;;;0.80;70.50;;;;;;5033262;28;20126;-75
2022/03/10 06:48:03;;;;;;;8.60;4.30;;;0.80;70.40;;;;;;5035607;28;20076;-78
2022/03/10 06:50:30;;;;;;;8.05;3.90;;;0.80;70.40;;;;;;5034133;28;20184;-79
2022/03/10 06:52:57;;;;;;;7.38;3.28;;;0.80;70.70;;;;;;5034175;28;20045;-77
2022/03/10 06:55:25;;;;;;;6.30;2.97;;;0.90;70.60;;;;;;5033901;28;20090;-78
2022/03/10 06:57:52;;;;;;;8.85;3.60;;;0.90;70.50;;;;;;5036008;28;20052;-78
2022/03/10 07:00:20;;;;;;;7.88;3.80;;;1.00;70.30;;;;;;5030527;28;20119;-77
2022/03/10 07:02:48;;;;;;;11.52;3.90;;;1.00;70.30;;;;;;5032583;28;20049;-77
2022/03/10 07:05:16;;;;;;;10.85;3.53;;;1.00;70.40;;;;;;5032719;28;20056;-76
2022/03/10 07:07:43;;;;;;;7.38;3.38;;;1.00;70.50;;;;;;5032743;28;21790;-76
2022/03/10 07:10:12;;;;;;;5.85;3.35;;;1.00;70.60;;;;;;5034289;28;20044;-79
2022/03/10 07:12:40;;;;;;;8.95;4.00;;;1.10;70.50;;;;;;5034934;28;20131;-76
2022/03/10 07:15:10;;;;;;;7.03;3.60;;;1.10;70.70;;;;;;5035190;28;20128;-79
2022/03/10 07:17:37;;;;;;;7.13;2.92;;;1.20;70.60;;;;;;5034189;28;20048;-78
2022/03/10 07:20:08;;;;;;;6.72;3.53;;;1.20;70.40;;;;;;5034220;28;20052;-79
2022/03/10 07:22:36;;;;;;;8.27;3.78;;;1.30;70.50;;;;;;5032516;28;21517;-79
2022/03/10 07:25:04;;;;;;;13.65;3.92;;;1.30;70.50;;;;;;5029463;28;20046;-79
2022/03/10 07:27:31;;;;;;;8.23;3.58;;;1.30;70.60;;;;;;5036180;28;20052;-79
2022/03/10 07:29:58;;;;;;;8.07;3.95;;;1.40;70.60;;;;;;5038010;28;20044;-77
2022/03/10 07:32:26;;;;;;;7.70;3.35;;;1.40;70.50;;;;;;5043728;28;20051;-77
2022/03/10 07:34:53;;;;;;;9.95;4.75;;;1.50;70.40;;;;;;5035041;28;20465;-78
2022/03/10 07:37:22;;;;;;;9.65;3.95;;;1.60;70.20;;;;;;5038634;28;20080;-78
2022/03/10 07:39:49;;;;;;;9.40;4.43;;;1.60;70.10;;;;;;5041367;28;20244;-79
2022/03/10 07:42:16;;;;;;;10.10;3.70;;;1.60;70.10;;;;;;5040761;28;20144;-78
2022/03/10 07:44:43;;;;;;;6.50;3.25;;;1.70;70.20;;;;;;5037763;28;20056;-78
2022/03/10 07:47:10;;;;;;;9.68;3.65;;;1.70;70.30;;;;;;5038985;28;20041;-78
2022/03/10 07:49:37;;;;;;;9.70;4.22;;;1.70;70.30;;;;;;5042103;28;20132;-79
2022/03/10 07:52:06;;;;;;;6.45;3.15;;;1.80;70.20;;;;;;5040989;28;20045;-78
2022/03/10 07:54:35;;;;;;;10.77;4.47;;;1.90;70.10;;;;;;5038177;28;20168;-78
2022/03/10 07:57:02;;;;;;;8.98;4.40;;;2.00;69.80;;;;;;5038754;28;21571;-77
2022/03/10 07:59:29;;;;;;;11.90;3.55;;;2.00;69.50;;;;;;5040953;28;20088;-78
2022/03/10 08:01:56;;;;;;;9.32;4.40;;;2.20;69.30;;;;;;5037038;28;20045;-78
2022/03/10 08:04:23;;;;;;;10.50;4.45;;;2.20;69.10;;;;;;5036829;28;20052;-77
2022/03/10 08:06:50;;;;;;;12.73;4.55;;;2.30;69.20;;;;;;5039901;28;20072;-79
2022/03/10 08:09:17;;;;;;;8.45;3.33;;;2.40;69.30;;;;;;5040273;28;20042;-79
2022/03/10 08:11:46;;;;;;;12.85;3.75;;;2.40;69.40;;;;;;5038046;28;20045;-79
2022/03/10 08:14:13;;;;;;;10.75;5.15;;;2.60;69.40;;;;;;5039129;28;20051;-79
2022/03/10 08:16:40;;;;;;;9.88;3.97;;;2.70;69.10;;;;;;5039524;28;20049;-78
2022/03/10 08:19:09;;;;;;;6.85;3.70;;;2.80;69.00;;;;;;5038132;28;20091;-79
2022/03/10 08:21:36;;;;;;;9.95;4.03;;;2.90;68.60;;;;;;5036389;28;20095;-76
2022/03/10 08:24:03;;;;;;;7.70;3.83;;;3.00;68.20;;;;;;5037118;28;20053;-79
2022/03/10 08:26:30;;;;;;;7.85;3.90;;;3.10;67.90;;;;;;5039097;28;20044;-80
2022/03/10 08:28:58;;;;;;;11.45;4.28;;;3.10;67.90;;;;;;5036696;28;20147;-79
2022/03/10 08:31:25;;;;;;;12.57;5.47;;;3.20;67.60;;;;;;5037587;28;20045;-77
2022/03/10 08:33:52;;;;;;;10.80;5.20;;;3.30;67.40;;;;;;5035529;28;20041;-77
2022/03/10 08:36:19;;;;;;;11.38;4.65;;;3.40;66.90;;;;;;5036845;28;20119;-80
2022/03/10 08:38:45;;;;;;;9.73;4.47;;;3.50;67.10;;;;;;5037179;28;20131;-78
2022/03/10 08:41:12;;;;;;;9.05;3.55;;;3.70;67.10;;;;;;5036818;28;20061;-79
2022/03/10 08:43:39;;;;;;;9.35;4.00;;;3.70;66.70;;;;;;5034986;28;20111;-78
2022/03/10 08:46:08;;;;;;;9.93;4.25;;;3.80;66.60;;;;;;5035207;28;20150;-79
2022/03/10 08:48:36;;;;;;;10.95;4.68;;;4.00;66.70;;;;;;5035541;28;20132;-78
2022/03/10 08:51:04;;;;;;;11.52;4.60;;;4.10;66.20;;;;;;5035663;28;20043;-79
2022/03/10 08:53:31;;;;;;;10.32;5.35;;;4.20;66.20;;;;;;5037588;28;20099;-78
2022/03/10 08:55:59;;;;;;;8.20;3.92;;;4.30;65.90;;;;;;5036968;28;20080;-77
2022/03/10 08:58:26;;;;;;;8.02;3.58;;;4.40;65.40;;;;;;5036740;28;20041;-78
2022/03/10 09:00:54;;;;;;;7.93;4.28;;;4.50;65.10;;;;;;5032020;28;20055;-70
2022/03/10 09:03:23;;;;;;;9.13;4.05;;;4.60;64.80;;;;;;5034015;28;20628;-70
2022/03/10 09:05:50;;;;;;;8.82;3.80;;;4.70;64.10;;;;;;5033934;28;20120;-71
2022/03/10 09:08:17;;;;;;;10.27;4.18;;;4.80;64.00;;;;;;5046554;28;20155;-71
2022/03/10 09:10:44;;;;;;;8.70;4.28;;;4.90;64.00;;;;;;5033820;28;20782;-70
2022/03/10 09:13:11;;;;;;;8.80;4.22;;;5.00;64.40;;;;;;5030147;28;20071;-70
2022/03/10 09:15:38;;;;;;;7.43;3.80;;;5.10;63.50;;;;;;5032237;28;21005;-69
2022/03/10 09:18:05;;;;;;;8.32;4.55;;;5.20;62.80;;;;;;5033252;28;20041;-71
2022/03/10 09:20:33;;;;;;;10.80;3.65;;;5.30;63.20;;;;;;5033111;28;20491;-70
2022/03/10 09:23:00;;;;;;;10.18;4.18;;;5.40;62.60;;;;;;5033601;28;20140;-70
2022/03/10 09:25:27;;;;;;;10.20;3.67;;;5.60;62.40;;;;;;5033189;28;20045;-71
2022/03/10 09:27:54;;;;;;;10.73;4.55;;;5.60;62.60;;;;;;5034011;28;20680;-71
2022/03/10 09:30:21;;;;;;;12.07;4.32;;;5.70;62.80;;;;;;5034450;28;20911;-71
2022/03/10 09:32:48;;;;;;;10.70;4.28;;;5.80;62.70;;;;;;5036422;28;20051;-71
2022/03/10 09:35:18;;;;;;;10.32;4.53;;;5.80;62.30;;;;;;5033825;28;20045;-70
2022/03/10 09:37:46;;;;;;;12.47;4.57;;;6.00;62.30;;;;;;5033069;28;20057;-70
2022/03/10 09:40:14;;;;;;;9.05;4.00;;;6.00;62.20;;;;;;5032864;28;20045;-70
2022/03/10 09:42:43;;;;;;;9.98;4.65;;;6.10;62.50;;;;;;5033280;28;20060;-71
2022/03/10 09:45:11;;;;;;;8.02;4.07;;;6.20;62.70;;;;;;5032921;28;20103;-71
2022/03/10 09:47:40;;;;;;;8.93;4.22;;;6.20;62.20;;;;;;5033349;28;20053;-71
2022/03/10 09:50:10;;;;;;;9.80;4.20;;;6.30;62.50;;;;;;5033537;28;20207;-71
2022/03/10 09:52:38;;;;;;;7.53;4.28;;;6.40;62.10;;;;;;5032945;28;20083;-72
2022/03/10 09:55:08;;;;;;;11.30;4.70;;;6.50;61.90;;;;;;5033157;28;20040;-70
2022/03/10 09:57:38;;;;;;;8.55;4.53;;;6.60;61.80;;;;;;5034122;28;20056;-70
2022/03/10 10:00:07;;;;;;;10.00;4.07;;;6.70;61.20;;;;;;5031350;28;20088;-70
2022/03/10 10:02:34;;;;;;;9.55;3.83;;;6.80;61.10;;;;;;5046789;28;20119;-69
2022/03/10 10:05:01;;;;;;;8.23;3.63;;;6.90;60.50;;;;;;5034444;28;20063;-71
2022/03/10 10:07:29;;;;;;;6.88;3.75;;;6.90;60.50;;;;;;5032895;28;20052;-69
2022/03/10 10:09:57;;;;;;;9.63;3.85;;;7.00;60.40;;;;;;5033750;28;20141;-70
2022/03/10 10:12:30;;;;;;;8.75;3.55;;;7.10;60.10;;;;;;5033675;28;20139;-71
2022/03/10 10:15:00;;;;;;;11.68;3.63;;;7.10;59.90;;;;;;5033657;28;20052;-70
2022/03/10 10:17:28;;;;;;;7.38;3.28;;;7.20;60.20;;;;;;5034981;28;20516;-71
2022/03/10 10:19:57;;;;;;;7.35;3.22;;;7.30;59.80;;;;;;5036262;28;20044;-71
2022/03/10 10:22:25;;;;;;;10.35;3.95;;;7.30;60.00;;;;;;5032434;28;20072;-71
2022/03/10 10:24:54;;;;;;;9.68;3.85;;;7.40;59.60;;;;;;5030408;28;20121;-71
2022/03/10 10:27:23;;;;;;;10.48;4.50;;;7.60;59.60;;;;;;5032982;28;20049;-70
2022/03/10 10:29:54;;;;;;;10.90;4.55;;;7.60;58.90;;;;;;5032794;28;20123;-70
2022/03/10 10:32:35;;;;;;;10.90;4.47;;;7.70;58.20;;;;;;5032198;28;20055;-70
2022/03/10 10:35:04;;;;;;;10.18;4.53;;;7.70;59.10;;;;;;5033122;28;20037;-70
2022/03/10 10:37:32;;;;;;;9.15;3.92;;;7.80;58.20;;;;;;5033935;28;20057;-71
2022/03/10 10:39:58;;;;;;;9.75;4.22;;;7.90;57.90;;;;;;5031730;28;20163;-70
2022/03/10 10:42:30;;;;;;;11.18;3.95;;;7.90;57.40;;;;;;5046276;28;20080;-70
2022/03/10 10:45:00;;;;;;;8.85;3.75;;;8.00;57.00;;;;;;5032544;28;20037;-70
2022/03/10 10:47:28;;;;;;;11.45;4.60;;;8.10;57.40;;;;;;5032845;28;20045;-70
2022/03/10 10:50:00;;;;;;;9.68;3.65;;;8.10;56.10;;;;;;5032372;28;20041;-71
2022/03/10 10:52:37;;;;;;;8.20;4.00;;;8.20;55.60;;;;;;5032890;28;20191;-71
2022/03/10 10:55:09;;;;;;;6.88;3.58;;;8.30;55.80;;;;;;5032831;28;20048;-69
2022/03/10 10:57:37;;;;;;;10.48;4.05;;;8.30;55.40;;;;;;5032374;28;20045;-70
2022/03/10 11:00:10;;;;;;;8.70;3.63;;;8.30;55.60;;;;;;5029699;28;20043;-71
2022/03/10 11:02:43;;;;;;;9.15;3.70;;;8.40;56.00;;;;;;5033241;28;20172;-70
2022/03/10 11:05:11;;;;;;;7.85;3.25;;;8.40;56.40;;;;;;5033015;28;20509;-70
2022/03/10 11:07:40;;;;;;;9.50;3.35;;;8.50;55.70;;;;;;5032752;28;20091;-70
2022/03/10 11:10:08;;;;;;;9.52;4.13;;;8.60;55.20;;;;;;5032961;28;20044;-71
2022/03/10 11:12:39;;;;;;;19.42;6.25;;;8.50;55.20;;;;;;5035511;28;20046;-69
2022/03/10 11:15:09;;;;;;;13.45;5.38;;;8.60;55.30;;;;;;5032912;28;20123;-69
2022/03/10 11:17:36;;;;;;;16.88;6.20;;;8.60;55.50;;;;;;5030400;28;20068;-69
2022/03/10 11:20:09;;;;;;;13.35;6.45;;;8.70;55.80;;;;;;5030082;28;20051;-70
2022/03/10 11:22:52;;;;;;;12.50;5.45;;;8.70;55.50;;;;;;5029796;28;20546;-70
2022/03/10 11:25:31;;;;;;;14.35;6.47;;;8.70;55.20;;;;;;5033270;28;20127;-69
2022/03/10 11:28:02;;;;;;;11.48;5.78;;;8.70;55.10;;;;;;5033999;28;20063;-70
2022/03/10 11:30:33;;;;;;;16.98;6.53;;;8.80;54.70;;;;;;5031263;28;20076;-70
2022/03/10 11:33:01;;;;;;;13.20;5.57;;;8.90;55.50;;;;;;5032580;28;20056;-69
2022/03/10 11:35:33;;;;;;;16.15;5.05;;;8.90;54.70;;;;;;5031043;28;20927;-70
2022/03/10 11:38:00;;;;;;;11.52;4.70;;;8.90;54.60;;;;;;5031783;28;20041;-70
2022/03/10 11:40:51;;;;;;;10.77;4.60;;;9.00;54.70;;;;;;5043795;28;20053;-69
2022/03/10 11:43:21;;;;;;;7.63;4.00;;;9.00;53.80;;;;;;5056679;28;20564;-72
2022/03/10 11:45:49;;;;;;;11.60;4.57;;;9.00;54.20;;;;;;5058508;28;20040;-69
2022/03/10 11:48:39;;;;;;;9.18;3.97;;;9.10;54.50;;;;;;5034452;28;20041;-70
2022/03/10 11:51:18;;;;;;;8.80;3.70;;;9.10;54.50;;;;;;5033779;28;20051;-72
2022/03/10 11:54:04;;;;;;;8.88;3.10;;;9.10;54.00;;;;;;5032541;28;20052;-69
2022/03/10 11:57:05;;;;;;;7.20;3.30;;;9.10;54.50;;;;;;5032634;28;20052;-70
2022/03/10 11:59:49;;;;;;;9.25;3.58;;;9.20;53.90;;;;;;5030636;28;20044;-71
2022/03/10 12:02:43;;;;;;;8.48;3.47;;;9.20;53.90;;;;;;5025822;28;20042;-70
2022/03/10 12:05:14;;;;;;;8.52;2.97;;;9.10;53.80;;;;;;5031366;28;20063;-71
2022/03/10 12:07:45;;;;;;;10.13;3.53;;;9.20;54.00;;;;;;5031223;28;20763;-69
2022/03/10 12:10:15;;;;;;;7.97;3.33;;;9.20;54.00;;;;;;5030700;28;20391;-70
2022/03/10 12:12:43;;;;;;;8.82;3.30;;;9.20;54.20;;;;;;5031537;28;20050;-71
2022/03/10 12:15:39;;;;;;;8.02;3.83;;;9.20;54.10;;;;;;5035664;28;20037;-70
2022/03/10 12:18:16;;;;;;;8.25;4.30;;;9.20;54.50;;;;;;5034064;28;20057;-70
2022/03/10 12:20:44;;;;;;;8.85;3.50;;;9.20;54.30;;;;;;5029522;28;20049;-71
2022/03/10 12:23:13;;;;;;;7.60;3.55;;;9.20;54.00;;;;;;5048220;28;20677;-70
2022/03/10 12:25:42;;;;;;;8.60;4.20;;;9.20;54.30;;;;;;5064244;28;20052;-71
2022/03/10 12:28:10;;;;;;;9.73;4.28;;;9.20;54.40;;;;;;5063680;28;20486;-71
2022/03/10 12:30:44;;;;;;;10.85;4.35;;;9.20;54.10;;;;;;5055452;28;20056;-71
2022/03/10 12:33:11;;;;;;;13.48;4.65;;;9.20;54.10;;;;;;5035500;28;20056;-71
2022/03/10 12:35:42;;;;;;;8.38;3.95;;;9.20;54.10;;;;;;5032646;28;20449;-70
2022/03/10 12:38:10;;;;;;;8.77;3.90;;;9.30;54.00;;;;;;5045611;28;20049;-70
2022/03/10 12:40:39;;;;;;;8.60;3.90;;;9.30;54.00;;;;;;5035094;28;20512;-70
2022/03/10 12:43:07;;;;;;;11.18;4.00;;;9.30;53.90;;;;;;5033530;28;20049;-70
2022/03/10 12:45:42;;;;;;;10.98;4.35;;;9.30;54.00;;;;;;5035482;28;20054;-71
2022/03/10 12:48:14;;;;;;;11.13;4.57;;;9.30;54.00;;;;;;5036318;28;20483;-70
2022/03/10 12:50:47;;;;;;;7.95;3.47;;;9.30;54.00;;;;;;5035676;28;20122;-70
2022/03/10 12:53:18;;;;;;;10.25;3.42;;;9.30;53.80;;;;;;5035663;28;20049;-70
2022/03/10 12:55:46;;;;;;;12.48;4.03;;;9.30;54.10;;;;;;5035080;28;20701;-70
2022/03/10 12:58:13;;;;;;;8.73;3.40;;;9.30;54.10;;;;;;5035139;28;20170;-71
2022/03/10 13:00:41;;;;;;;9.45;3.72;;;9.30;54.30;;;;;;5033516;28;20072;-69
2022/03/10 13:03:08;;;;;;;8.07;3.03;;;9.20;53.90;;;;;;5036280;28;20059;-71
2022/03/10 13:05:37;;;;;;;8.63;3.17;;;9.20;54.10;;;;;;5035604;28;20049;-69
2022/03/10 13:08:09;;;;;;;7.07;2.83;;;9.30;54.30;;;;;;5034509;28;20069;-69
2022/03/10 13:10:37;;;;;;;7.00;2.80;;;9.30;56.00;;;;;;5036056;28;20040;-70
2022/03/10 13:13:05;;;;;;;5.45;2.00;;;10.10;57.60;;;;;;5035649;28;20049;-70
2022/03/10 13:15:33;;;;;;;5.15;2.38;;;10.20;57.10;;;;;;5034871;28;20132;-70